createdAt,value
2023-01-17T00:02:08.077Z,4.90
2023-01-17T00:04:53.900Z,4.90
2023-01-17T00:07:41.060Z,4.90
2023-01-17T00:10:26.026Z,4.90
2023-01-17T00:12:55.933Z,5.00
2023-01-17T00:15:24.173Z,5.00
2023-01-17T00:17:52.845Z,5.00
2023-01-17T00:20:44.302Z,5.00
2023-01-17T00:23:34.033Z,5.00
2023-01-17T00:26:04.456Z,5.00
2023-01-17T00:28:40.044Z,4.90
2023-01-17T00:31:09.627Z,4.90
2023-01-17T00:33:37.275Z,4.80
2023-01-17T00:36:05.439Z,4.80
2023-01-17T00:38:36.444Z,4.80
2023-01-17T00:41:05.737Z,4.80
2023-01-17T00:43:52.166Z,4.70
2023-01-17T00:46:38.702Z,4.70
2023-01-17T00:49:25.172Z,4.70
2023-01-17T00:52:10.918Z,4.70
2023-01-17T00:54:56.949Z,4.80
2023-01-17T00:57:42.592Z,4.80
2023-01-17T01:00:29.067Z,4.80
2023-01-17T01:03:14.713Z,4.80
2023-01-17T01:06:01.090Z,4.80
2023-01-17T01:08:48.309Z,4.80
2023-01-17T01:11:37.404Z,4.80
2023-01-17T01:14:25.094Z,4.80
2023-01-17T01:17:11.421Z,4.80
2023-01-17T01:19:57.329Z,4.80
2023-01-17T01:22:43.186Z,4.70
2023-01-17T01:25:28.670Z,4.80
2023-01-17T01:28:31.035Z,4.80
2023-01-17T01:31:20.358Z,4.70
2023-01-17T01:33:48.093Z,4.70
2023-01-17T01:36:15.757Z,4.70
2023-01-17T01:38:43.370Z,4.70
2023-01-17T01:41:10.529Z,4.70
2023-01-17T01:43:49.730Z,4.60
2023-01-17T01:46:25.229Z,4.60
2023-01-17T01:49:02.670Z,4.70
2023-01-17T01:51:37.160Z,4.70
2023-01-17T01:54:30.220Z,4.70
2023-01-17T01:57:02.640Z,4.70
2023-01-17T01:59:31.012Z,4.60
2023-01-17T02:01:58.424Z,4.60
2023-01-17T02:04:27.319Z,4.70
2023-01-17T02:07:03.775Z,4.70
2023-01-17T02:09:31.282Z,4.70
2023-01-17T02:11:58.704Z,4.70
2023-01-17T02:14:26.202Z,4.70
2023-01-17T02:17:17.040Z,4.70
2023-01-17T02:19:52.921Z,4.80
2023-01-17T02:22:58.056Z,4.80
2023-01-17T02:25:46.719Z,4.80
2023-01-17T02:28:29.050Z,4.80
2023-01-17T02:31:01.292Z,4.80
2023-01-17T02:33:45.153Z,4.80
2023-01-17T02:36:22.422Z,4.80
2023-01-17T02:38:57.801Z,4.80
2023-01-17T02:41:32.787Z,4.80
2023-01-17T02:44:02.050Z,4.70
2023-01-17T02:46:29.492Z,4.70
2023-01-17T02:48:57.806Z,4.70
2023-01-17T02:52:00.130Z,4.60
2023-01-17T02:54:53.441Z,4.60
2023-01-17T02:57:37.011Z,4.50
2023-01-17T03:00:29.324Z,4.50
2023-01-17T03:03:11.939Z,4.40
2023-01-17T03:06:11.481Z,4.40
2023-01-17T03:08:44.765Z,4.40
2023-01-17T03:11:13.248Z,4.40
2023-01-17T03:13:41.433Z,4.30
2023-01-17T03:16:14.993Z,4.20
2023-01-17T03:18:42.599Z,4.10
2023-01-17T03:21:09.796Z,4.00
2023-01-17T03:23:37.673Z,4.00
2023-01-17T03:26:05.023Z,4.00
2023-01-17T03:28:32.648Z,4.00
2023-01-17T03:30:59.863Z,4.00
2023-01-17T03:33:27.285Z,4.10
2023-01-17T03:35:57.991Z,4.10
2023-01-17T03:38:26.516Z,4.00
2023-01-17T03:40:54.041Z,3.90
2023-01-17T03:43:21.599Z,3.80
2023-01-17T03:45:54.384Z,3.80
2023-01-17T03:48:22.110Z,3.80
2023-01-17T03:50:52.061Z,3.80
2023-01-17T03:53:19.550Z,3.90
2023-01-17T03:55:47.042Z,4.00
2023-01-17T03:58:14.749Z,4.10
2023-01-17T04:00:42.366Z,4.10
2023-01-17T04:03:09.892Z,4.20
2023-01-17T04:05:37.110Z,4.20
2023-01-17T04:08:06.650Z,4.30
2023-01-17T04:10:34.172Z,4.30
2023-01-17T04:13:02.692Z,4.30
2023-01-17T04:15:30.258Z,4.40
2023-01-17T04:17:58.075Z,4.40
2023-01-17T04:20:37.113Z,4.40
2023-01-17T04:23:05.279Z,4.40
2023-01-17T04:25:32.824Z,4.40
2023-01-17T04:28:01.681Z,4.30
2023-01-17T04:30:29.703Z,4.10
2023-01-17T04:32:57.403Z,4.00
2023-01-17T04:35:25.026Z,3.90
2023-01-17T04:37:52.798Z,3.70
2023-01-17T04:40:20.252Z,3.70
2023-01-17T04:42:48.396Z,3.50
2023-01-17T04:45:15.928Z,3.40
2023-01-17T04:47:43.404Z,3.30
2023-01-17T04:50:11.270Z,3.20
2023-01-17T04:52:38.776Z,3.20
2023-01-17T04:55:06.752Z,3.10
2023-01-17T04:57:34.223Z,3.00
2023-01-17T05:00:01.409Z,3.00
2023-01-17T05:02:28.868Z,2.90
2023-01-17T05:04:56.074Z,2.90
2023-01-17T05:07:23.458Z,2.90
2023-01-17T05:09:50.569Z,2.80
2023-01-17T05:12:17.959Z,2.80
2023-01-17T05:14:45.137Z,2.70
2023-01-17T05:17:12.578Z,2.70
2023-01-17T05:19:39.749Z,2.70
2023-01-17T05:22:15.127Z,2.60
2023-01-17T05:24:47.500Z,2.60
2023-01-17T05:27:15.235Z,2.50
2023-01-17T05:29:42.729Z,2.50
2023-01-17T05:32:10.245Z,2.50
2023-01-17T05:34:37.379Z,2.50
2023-01-17T05:37:04.964Z,2.50
2023-01-17T05:39:32.108Z,2.40
2023-01-17T05:41:59.927Z,2.40
2023-01-17T05:44:27.749Z,2.40
2023-01-17T05:46:56.120Z,2.40
2023-01-17T05:49:23.427Z,2.30
2023-01-17T05:51:52.924Z,2.30
2023-01-17T05:54:21.836Z,2.40
2023-01-17T05:56:49.244Z,2.40
2023-01-17T05:59:20.560Z,2.40
2023-01-17T06:01:54.317Z,2.50
2023-01-17T06:04:21.565Z,2.50
2023-01-17T06:06:49.030Z,2.50
2023-01-17T06:09:16.193Z,2.60
2023-01-17T06:11:43.665Z,2.60
2023-01-17T06:14:10.882Z,2.60
2023-01-17T06:16:38.226Z,2.60
2023-01-17T06:19:05.327Z,2.60
2023-01-17T06:21:32.714Z,2.60
2023-01-17T06:23:59.785Z,2.70
2023-01-17T06:26:27.333Z,2.70
2023-01-17T06:28:54.464Z,2.70
2023-01-17T06:31:21.983Z,2.60
2023-01-17T06:33:49.174Z,2.60
2023-01-17T06:36:16.528Z,2.60
2023-01-17T06:38:43.705Z,2.50
2023-01-17T06:41:11.117Z,2.50
2023-01-17T06:43:38.270Z,2.40
2023-01-17T06:46:07.095Z,2.40
2023-01-17T06:48:34.230Z,2.40
2023-01-17T06:51:01.602Z,2.40
2023-01-17T06:53:28.746Z,2.40
2023-01-17T06:56:00.205Z,2.30
2023-01-17T06:58:27.543Z,2.40
2023-01-17T07:00:55.122Z,2.40
2023-01-17T07:03:25.134Z,2.50
2023-01-17T07:05:53.150Z,2.50
2023-01-17T07:08:20.645Z,2.50
2023-01-17T07:10:48.934Z,2.50
2023-01-17T07:13:16.152Z,2.60
2023-01-17T07:15:43.652Z,2.60
2023-01-17T07:18:10.939Z,2.60
2023-01-17T07:20:38.578Z,2.70
2023-01-17T07:23:06.856Z,2.80
2023-01-17T07:25:34.307Z,2.90
2023-01-17T07:28:01.470Z,2.90
2023-01-17T07:30:29.194Z,2.90
2023-01-17T07:32:56.488Z,3.00
2023-01-17T07:35:26.779Z,3.10
2023-01-17T07:37:54.673Z,3.10
2023-01-17T07:40:22.925Z,3.20
2023-01-17T07:42:50.184Z,3.20
2023-01-17T07:45:18.073Z,3.30
2023-01-17T07:47:45.236Z,3.30
2023-01-17T07:50:13.637Z,3.30
2023-01-17T07:52:40.962Z,3.30
2023-01-17T07:55:09.134Z,3.30
2023-01-17T07:57:36.338Z,3.40
2023-01-17T08:00:05.368Z,3.50
2023-01-17T08:02:39.570Z,3.50
2023-01-17T08:05:07.463Z,3.60
2023-01-17T08:07:34.656Z,3.70
2023-01-17T08:10:02.255Z,3.80
2023-01-17T08:12:29.635Z,3.90
2023-01-17T08:14:57.165Z,3.90
2023-01-17T08:17:24.305Z,4.00
2023-01-17T08:19:53.095Z,4.10
2023-01-17T08:22:20.242Z,4.20
2023-01-17T08:24:47.640Z,4.40
2023-01-17T08:27:15.217Z,4.40
2023-01-17T08:29:46.923Z,4.50
2023-01-17T08:32:14.763Z,4.50
2023-01-17T08:34:42.595Z,4.60
2023-01-17T08:37:09.716Z,4.70
2023-01-17T08:39:37.107Z,4.70
2023-01-17T08:42:04.608Z,4.80
2023-01-17T08:44:32.032Z,4.80
2023-01-17T08:46:59.274Z,4.70
2023-01-17T08:49:29.127Z,4.80
2023-01-17T08:51:56.286Z,4.80
2023-01-17T08:54:23.753Z,4.80
2023-01-17T08:56:52.865Z,4.90
2023-01-17T08:59:20.334Z,4.90
2023-01-17T09:01:47.569Z,5.00
2023-01-17T09:04:15.795Z,4.90
2023-01-17T09:06:45.477Z,5.10
2023-01-17T09:09:13.734Z,5.10
2023-01-17T09:11:41.044Z,5.10
2023-01-17T09:14:08.665Z,5.20
2023-01-17T09:16:35.924Z,5.20
2023-01-17T09:19:03.347Z,5.20
2023-01-17T09:21:30.664Z,5.30
2023-01-17T09:23:58.086Z,5.30
2023-01-17T09:26:28.189Z,5.30
2023-01-17T09:28:56.288Z,5.30
2023-01-17T09:31:24.535Z,5.40
2023-01-17T09:33:52.877Z,5.40
2023-01-17T09:36:20.664Z,5.50
2023-01-17T09:38:48.315Z,5.50
2023-01-17T09:41:27.406Z,5.50
2023-01-17T09:44:07.658Z,5.70
2023-01-17T09:46:42.890Z,5.80
2023-01-17T09:49:28.015Z,5.80
2023-01-17T09:51:55.284Z,6.00
2023-01-17T09:54:25.410Z,6.00
2023-01-17T09:57:11.652Z,6.10
2023-01-17T10:00:02.627Z,6.10
2023-01-17T10:02:59.434Z,6.10
2023-01-17T10:05:36.655Z,6.20
2023-01-17T10:08:25.045Z,6.20
2023-01-17T10:11:13.886Z,6.10
2023-01-17T10:13:47.050Z,6.20
2023-01-17T10:16:41.530Z,6.20
2023-01-17T10:19:08.643Z,6.30
2023-01-17T10:21:49.568Z,6.30
2023-01-17T10:24:40.709Z,6.50
2023-01-17T10:27:25.399Z,6.60
2023-01-17T10:29:54.198Z,6.60
2023-01-17T10:32:25.291Z,6.80
2023-01-17T10:34:53.426Z,6.80
2023-01-17T10:37:41.833Z,6.90
2023-01-17T10:40:22.034Z,6.90
2023-01-17T10:43:14.719Z,6.90
2023-01-17T10:45:49.003Z,6.90
2023-01-17T10:48:22.490Z,6.90
2023-01-17T10:51:02.394Z,7.00
2023-01-17T10:53:35.548Z,7.00
2023-01-17T10:56:03.202Z,7.00
2023-01-17T10:58:31.845Z,7.10
2023-01-17T11:01:10.884Z,7.10
2023-01-17T11:03:39.899Z,7.30
2023-01-17T11:06:57.351Z,7.40
2023-01-17T11:09:56.381Z,7.50
2023-01-17T11:12:23.496Z,7.30
2023-01-17T11:15:17.837Z,7.10
2023-01-17T11:17:52.914Z,7.10
2023-01-17T11:20:38.411Z,7.00
2023-01-17T11:23:18.536Z,6.90
2023-01-17T11:26:24.007Z,6.90
2023-01-17T11:28:54.550Z,6.80
2023-01-17T11:31:26.629Z,6.80
2023-01-17T11:34:26.576Z,6.80
2023-01-17T11:37:18.361Z,6.70
2023-01-17T11:39:48.189Z,6.70
2023-01-17T11:42:36.561Z,6.60
2023-01-17T11:45:32.918Z,6.50
2023-01-17T11:48:09.293Z,6.60
2023-01-17T11:50:55.272Z,6.50
2023-01-17T11:53:26.548Z,6.50
2023-01-17T11:55:58.545Z,6.60
2023-01-17T11:58:27.272Z,6.60
2023-01-17T12:01:41.436Z,6.70
2023-01-17T12:04:19.408Z,6.60
2023-01-17T12:07:07.471Z,6.60
2023-01-17T12:09:50.551Z,6.60
2023-01-17T12:12:48.052Z,6.60
2023-01-17T12:15:23.192Z,6.70
2023-01-17T12:18:17.024Z,6.70
2023-01-17T12:20:51.419Z,6.70
2023-01-17T12:23:40.507Z,6.70
2023-01-17T12:26:32.331Z,6.60
2023-01-17T12:29:15.015Z,6.60
2023-01-17T12:31:59.150Z,6.60
2023-01-17T12:34:43.844Z,6.70
2023-01-17T12:37:37.569Z,6.60
2023-01-17T12:40:15.408Z,6.60
2023-01-17T12:43:01.621Z,6.60
2023-01-17T12:45:38.517Z,6.70
2023-01-17T12:48:17.078Z,6.60
2023-01-17T12:51:05.702Z,6.60
2023-01-17T12:53:42.624Z,6.60
2023-01-17T12:56:24.315Z,6.60
2023-01-17T12:58:58.906Z,6.60
2023-01-17T13:01:32.161Z,6.50
2023-01-17T13:04:41.991Z,6.50
2023-01-17T13:07:27.557Z,6.50
2023-01-17T13:10:25.000Z,6.40
2023-01-17T13:12:55.752Z,6.50
2023-01-17T13:15:27.262Z,6.50
2023-01-17T13:18:02.913Z,6.50
2023-01-17T13:20:56.629Z,6.50
2023-01-17T13:23:33.343Z,6.50
2023-01-17T13:26:03.205Z,6.50
2023-01-17T13:28:52.275Z,6.50
2023-01-17T13:31:35.547Z,6.40
2023-01-17T13:34:11.603Z,6.40
2023-01-17T13:36:52.449Z,6.40
2023-01-17T13:39:43.525Z,6.40
2023-01-17T13:42:22.835Z,6.40
2023-01-17T13:44:50.575Z,6.30
2023-01-17T13:47:18.039Z,6.30
2023-01-17T13:49:49.287Z,6.30
2023-01-17T13:52:19.622Z,6.30
2023-01-17T13:54:58.014Z,6.20
2023-01-17T13:57:28.533Z,6.20
2023-01-17T13:59:58.669Z,6.20
2023-01-17T14:02:31.903Z,6.20
2023-01-17T14:05:10.650Z,6.10
2023-01-17T14:07:49.625Z,6.10
2023-01-17T14:10:40.817Z,6.00
2023-01-17T14:13:37.607Z,5.90
2023-01-17T14:16:31.400Z,5.90
2023-01-17T14:18:58.945Z,5.90
2023-01-17T14:21:35.641Z,5.80
2023-01-17T14:24:18.299Z,5.80
2023-01-17T14:26:58.910Z,5.80
2023-01-17T14:29:50.784Z,5.80
2023-01-17T14:32:21.782Z,5.70
2023-01-17T14:34:52.053Z,5.60
2023-01-17T14:37:40.482Z,5.40
2023-01-17T14:40:20.137Z,5.30
2023-01-17T14:42:51.987Z,5.20
2023-01-17T14:45:26.831Z,5.10
2023-01-17T14:47:54.323Z,5.00
2023-01-17T14:50:27.714Z,4.90
2023-01-17T14:53:12.806Z,4.80
2023-01-17T14:55:50.562Z,4.70
2023-01-17T14:58:35.070Z,4.60
2023-01-17T15:01:20.506Z,4.60
2023-01-17T15:03:49.196Z,4.70
2023-01-17T15:06:23.463Z,4.80
2023-01-17T15:08:54.696Z,4.90
2023-01-17T15:11:26.069Z,5.00
2023-01-17T15:13:57.518Z,5.10
2023-01-17T15:16:26.166Z,5.20
2023-01-17T15:18:55.095Z,5.30
2023-01-17T15:21:26.402Z,5.40
2023-01-17T15:23:57.209Z,5.40
2023-01-17T15:26:27.954Z,5.40
2023-01-17T15:29:05.377Z,5.40
2023-01-17T15:31:44.895Z,5.40
2023-01-17T15:34:38.475Z,5.40
2023-01-17T15:37:21.410Z,5.40
2023-01-17T15:39:48.609Z,5.20
2023-01-17T15:42:26.222Z,5.00
2023-01-17T15:45:00.823Z,4.80
2023-01-17T15:47:40.132Z,4.60
2023-01-17T15:50:28.710Z,4.50
2023-01-17T15:53:28.407Z,4.30
2023-01-17T15:55:57.747Z,4.10
2023-01-17T15:58:28.689Z,4.00
2023-01-17T16:00:56.973Z,3.90
2023-01-17T16:03:30.437Z,3.80
2023-01-17T16:06:01.173Z,3.70
2023-01-17T16:08:39.852Z,3.70
2023-01-17T16:11:10.728Z,3.60
2023-01-17T16:13:39.119Z,3.60
2023-01-17T16:16:22.897Z,3.60
2023-01-17T16:18:57.747Z,3.60
2023-01-17T16:21:28.435Z,3.60
2023-01-17T16:23:56.517Z,3.50
2023-01-17T16:26:24.399Z,3.40
2023-01-17T16:28:52.064Z,3.40
2023-01-17T16:31:19.607Z,3.40
2023-01-17T16:33:49.949Z,3.40
2023-01-17T16:36:18.018Z,3.40
2023-01-17T16:38:45.806Z,3.50
2023-01-17T16:41:13.059Z,3.50
2023-01-17T16:43:40.568Z,3.40
2023-01-17T16:46:11.227Z,3.40
2023-01-17T16:48:38.790Z,3.30
2023-01-17T16:51:08.034Z,3.30
2023-01-17T16:53:35.814Z,3.30
2023-01-17T16:56:12.391Z,3.40
2023-01-17T16:58:41.030Z,3.30
2023-01-17T17:01:15.395Z,3.20
2023-01-17T17:03:43.957Z,3.10
2023-01-17T17:06:11.961Z,3.00
2023-01-17T17:08:40.020Z,2.90
2023-01-17T17:11:14.231Z,2.90
2023-01-17T17:13:46.926Z,2.80
2023-01-17T17:16:20.143Z,2.70
2023-01-17T17:18:55.015Z,2.70
2023-01-17T17:21:22.120Z,2.60
2023-01-17T17:23:56.689Z,2.50
2023-01-17T17:26:34.104Z,2.50
2023-01-17T17:29:02.409Z,2.50
2023-01-17T17:31:29.748Z,2.40
2023-01-17T17:34:01.410Z,2.40
2023-01-17T17:36:29.593Z,2.30
2023-01-17T17:38:57.913Z,2.30
2023-01-17T17:41:27.858Z,2.20
2023-01-17T17:43:55.793Z,2.20
2023-01-17T17:46:25.086Z,2.20
2023-01-17T17:48:52.960Z,2.20
2023-01-17T17:51:25.978Z,2.10
2023-01-17T17:53:54.837Z,2.10
2023-01-17T17:56:23.499Z,2.10
2023-01-17T17:58:50.949Z,2.00
2023-01-17T18:01:18.204Z,2.00
2023-01-17T18:03:45.694Z,2.00
2023-01-17T18:06:13.342Z,2.00
2023-01-17T18:08:40.811Z,2.00
2023-01-17T18:11:14.928Z,2.00
2023-01-17T18:13:42.970Z,1.90
2023-01-17T18:16:12.476Z,1.90
2023-01-17T18:18:43.313Z,1.90
2023-01-17T18:21:14.208Z,1.90
2023-01-17T18:23:44.210Z,1.80
2023-01-17T18:26:20.109Z,1.80
2023-01-17T18:28:48.037Z,1.70
2023-01-17T18:31:15.399Z,1.70
2023-01-17T18:33:42.874Z,1.70
2023-01-17T18:36:12.449Z,1.60
2023-01-17T18:38:49.291Z,1.60
2023-01-17T18:41:22.666Z,1.60
2023-01-17T18:43:50.129Z,1.60
2023-01-17T18:46:18.678Z,1.50
2023-01-17T18:48:46.479Z,1.40
2023-01-17T18:51:18.266Z,1.40
2023-01-17T18:53:46.836Z,1.40
2023-01-17T18:56:17.898Z,1.30
2023-01-17T18:58:47.309Z,1.30
2023-01-17T19:01:16.155Z,1.30
2023-01-17T19:03:47.697Z,1.30
2023-01-17T19:06:23.560Z,1.20
2023-01-17T19:08:53.826Z,1.20
2023-01-17T19:11:22.574Z,1.10
2023-01-17T19:13:50.957Z,1.10
2023-01-17T19:16:32.931Z,1.10
2023-01-17T19:19:06.878Z,1.00
2023-01-17T19:21:34.395Z,1.00
2023-01-17T19:24:02.131Z,0.90
2023-01-17T19:26:30.040Z,0.90
2023-01-17T19:29:03.685Z,0.80
2023-01-17T19:31:32.829Z,0.80
2023-01-17T19:34:00.480Z,0.80
2023-01-17T19:36:33.518Z,0.80
2023-01-17T19:39:06.191Z,0.80
2023-01-17T19:41:36.235Z,0.80
2023-01-17T19:44:07.215Z,0.80
2023-01-17T19:46:35.533Z,0.80
2023-01-17T19:49:04.291Z,0.80
2023-01-17T19:51:31.505Z,0.90
2023-01-17T19:54:01.780Z,0.90
2023-01-17T19:56:29.655Z,0.90
2023-01-17T19:59:00.868Z,0.90
2023-01-17T20:01:33.606Z,1.00
2023-01-17T20:04:02.382Z,1.00
2023-01-17T20:06:32.826Z,1.00
2023-01-17T20:09:00.372Z,1.00
2023-01-17T20:11:28.813Z,1.00
2023-01-17T20:13:58.396Z,1.00
2023-01-17T20:16:28.793Z,1.00
2023-01-17T20:19:00.176Z,1.00
2023-01-17T20:21:29.561Z,0.90
2023-01-17T20:23:59.086Z,0.90
2023-01-17T20:26:34.462Z,0.80
2023-01-17T20:29:06.790Z,0.80
2023-01-17T20:31:38.086Z,0.70
2023-01-17T20:34:07.275Z,0.70
2023-01-17T20:36:34.717Z,0.70
2023-01-17T20:39:05.096Z,0.70
2023-01-17T20:41:35.505Z,0.70
2023-01-17T20:44:05.751Z,0.70
2023-01-17T20:46:37.906Z,0.60
2023-01-17T20:49:13.331Z,0.60
2023-01-17T20:51:41.065Z,0.70
2023-01-17T20:54:13.880Z,0.70
2023-01-17T20:56:41.061Z,0.60
2023-01-17T20:59:12.276Z,0.50
2023-01-17T21:01:39.538Z,0.50
2023-01-17T21:04:25.946Z,0.50
2023-01-17T21:06:53.619Z,0.60
2023-01-17T21:09:22.026Z,0.50
2023-01-17T21:11:49.433Z,0.50
2023-01-17T21:14:16.905Z,0.50
2023-01-17T21:16:44.683Z,0.50
2023-01-17T21:19:14.956Z,0.50
2023-01-17T21:21:42.458Z,0.50
2023-01-17T21:24:10.195Z,0.60
2023-01-17T21:26:38.964Z,0.60
2023-01-17T21:29:07.126Z,0.60
2023-01-17T21:31:35.675Z,0.60
2023-01-17T21:34:05.710Z,0.60
2023-01-17T21:36:36.404Z,0.60
2023-01-17T21:39:06.863Z,0.50
2023-01-17T21:41:37.156Z,0.60
2023-01-17T21:44:08.644Z,0.60
2023-01-17T21:46:40.705Z,0.60
2023-01-17T21:49:12.986Z,0.60
2023-01-17T21:52:03.793Z,0.60
2023-01-17T21:54:50.651Z,0.60
2023-01-17T21:57:39.365Z,0.60
2023-01-17T22:00:10.459Z,0.70
2023-01-17T22:02:47.087Z,0.70
2023-01-17T22:05:16.750Z,0.70
2023-01-17T22:08:04.526Z,0.80
2023-01-17T22:10:32.574Z,0.70
2023-01-17T22:12:59.952Z,0.80
2023-01-17T22:15:27.496Z,0.80
2023-01-17T22:17:55.323Z,0.90
2023-01-17T22:20:22.991Z,0.90
2023-01-17T22:22:50.078Z,0.90
2023-01-17T22:25:17.506Z,0.90
2023-01-17T22:27:44.664Z,0.90
2023-01-17T22:30:13.084Z,1.00
2023-01-17T22:32:40.628Z,1.00
2023-01-17T22:35:08.386Z,1.00
2023-01-17T22:37:35.817Z,1.10
2023-01-17T22:40:04.963Z,1.10
2023-01-17T22:42:35.159Z,1.10
2023-01-17T22:45:02.600Z,1.10
2023-01-17T22:47:30.115Z,1.10
2023-01-17T22:49:57.564Z,1.20
2023-01-17T22:52:25.215Z,1.20
2023-01-17T22:54:52.788Z,1.20
2023-01-17T22:57:19.949Z,1.30
2023-01-17T22:59:47.636Z,1.30
2023-01-17T23:02:16.497Z,1.30
2023-01-17T23:04:44.700Z,1.40
2023-01-17T23:07:11.876Z,1.40
2023-01-17T23:09:39.272Z,1.50
2023-01-17T23:12:06.906Z,1.50
2023-01-17T23:14:54.638Z,1.50
2023-01-17T23:17:42.084Z,1.60
2023-01-17T23:20:10.853Z,1.60
2023-01-17T23:22:38.628Z,1.60
2023-01-17T23:25:11.511Z,1.60
2023-01-17T23:28:01.471Z,1.70
2023-01-17T23:30:34.404Z,1.70
2023-01-17T23:33:06.971Z,1.70
2023-01-17T23:35:41.304Z,1.70
2023-01-17T23:38:33.964Z,1.60
2023-01-17T23:41:24.336Z,1.60
2023-01-17T23:43:55.868Z,1.60
2023-01-17T23:46:25.212Z,1.60
2023-01-17T23:48:52.670Z,1.70
2023-01-17T23:51:20.212Z,1.70
2023-01-17T23:53:47.557Z,1.70
2023-01-17T23:56:18.963Z,1.70
2023-01-17T23:58:46.306Z,1.70
